Time;durP1;ratioP1;P1;durP2;ratioP2;P2;SDS_P1;SDS_P2;PMS_P1;PMS_P2;Temp;Humidity;BMP_temperature;BMP_pressure;BME280_temperature;BME280_humidity;BME280_pressure;Samples;Min_cycle;Max_cycle;Signal;HPM_P1;HPM_P2
2021/03/08 06:30:42;;;;;;;35.28;23.42;;;-0.40;99.20;;;;;;5675913;23;20216;-82
2021/03/08 06:33:08;;;;;;;32.05;23.13;;;-0.30;99.40;;;;;;4985814;28;20197;-83
2021/03/08 06:35:34;;;;;;;32.75;23.17;;;-0.20;99.40;;;;;;4985372;28;20248;-84
2021/03/08 06:38:01;;;;;;;28.90;22.63;;;0.00;99.50;;;;;;4986227;28;20208;-83
2021/03/08 06:40:27;;;;;;;31.70;23.45;;;0.00;99.20;;;;;;4983399;28;20225;-83
2021/03/08 06:43:00;;;;;;;43.50;21.65;;;0.10;99.40;;;;;;4991158;28;20239;-88
2021/03/08 09:04:07;;;;;;;18.73;17.03;;;13.60;52.20;;;;;;4977798;28;20488;-92
2021/03/08 09:06:53;;;;;;;20.67;18.77;;;15.40;49.70;;;;;;4979561;28;20587;-91
2021/03/08 11:54:11;;;;;;;;;;;;;;;;;;;;;
2021/03/08 13:41:35;;;;;;;13.27;12.17;;;19.30;28.30;;;;;;4998138;28;20437;-91
2021/03/08 14:30:54;;;;;;;;;;;;;;;;;;;;;
2021/03/08 14:50:20;;;;;;;10.83;9.83;;;14.50;33.40;;;;;;4809706;29;20453;-91
2021/03/08 14:56:07;;;;;;;11.17;9.97;;;13.60;35.30;;;;;;4875417;23;20493;-86
2021/03/08 14:58:33;;;;;;;12.30;10.03;;;13.90;35.70;;;;;;4958340;29;20968;-86
2021/03/08 15:00:59;;;;;;;11.90;9.23;;;14.00;35.50;;;;;;4965315;28;20456;-86
2021/03/08 15:03:26;;;;;;;10.43;9.30;;;14.10;35.30;;;;;;4972204;28;20452;-85
2021/03/08 15:05:52;;;;;;;11.30;9.70;;;13.90;35.90;;;;;;4962741;28;20460;-87
2021/03/08 15:08:19;;;;;;;11.50;10.30;;;13.90;35.90;;;;;;4962530;29;20455;-84
2021/03/08 15:10:45;;;;;;;9.90;9.07;;;14.10;35.50;;;;;;4972390;29;20436;-85
2021/03/08 15:13:11;;;;;;;10.33;9.33;;;14.50;35.00;;;;;;4972997;29;20818;-84
2021/03/08 15:15:38;;;;;;;9.83;8.80;;;14.80;34.60;;;;;;4974304;28;20479;-85
2021/03/08 15:18:04;;;;;;;10.93;9.83;;;14.90;34.30;;;;;;4971847;29;20481;-86
2021/03/08 15:20:30;;;;;;;10.40;9.50;;;14.50;35.10;;;;;;4967581;29;20819;-85
2021/03/08 15:22:56;;;;;;;13.30;10.77;;;14.30;35.00;;;;;;4967585;29;20518;-86
2021/03/08 15:25:23;;;;;;;11.67;10.47;;;14.00;35.30;;;;;;4965201;29;20572;-85
2021/03/08 15:27:49;;;;;;;10.13;9.23;;;13.70;35.70;;;;;;4964932;29;20452;-86
2021/03/08 15:30:17;;;;;;;9.77;8.83;;;13.50;35.70;;;;;;4966915;29;20443;-84
2021/03/08 15:32:43;;;;;;;9.77;8.97;;;13.20;35.90;;;;;;4969170;29;20460;-85
2021/03/08 15:35:10;;;;;;;13.57;11.93;;;13.20;36.40;;;;;;4971534;29;20457;-83
2021/03/08 15:37:36;;;;;;;9.90;8.90;;;13.40;36.40;;;;;;4974393;28;20469;-86
2021/03/08 15:40:04;;;;;;;11.30;10.20;;;13.40;36.60;;;;;;4966625;29;20453;-86
2021/03/08 15:42:31;;;;;;;9.30;8.40;;;13.50;36.60;;;;;;4963701;29;20470;-84
2021/03/08 15:44:57;;;;;;;9.13;8.33;;;13.50;36.50;;;;;;4973824;28;20504;-84
2021/03/08 15:47:23;;;;;;;12.10;8.47;;;13.30;36.30;;;;;;4974674;28;20837;-85
2021/03/08 15:49:49;;;;;;;9.83;8.87;;;13.10;36.30;;;;;;4961064;29;20459;-86
2021/03/08 15:52:16;;;;;;;8.73;7.70;;;12.80;36.50;;;;;;4962908;29;20503;-85
2021/03/08 15:54:42;;;;;;;8.33;7.53;;;12.60;37.20;;;;;;4962439;29;20990;-83
2021/03/08 15:57:09;;;;;;;10.27;9.27;;;12.60;37.80;;;;;;4961861;29;20476;-84
2021/03/08 15:59:36;;;;;;;10.20;9.30;;;12.40;37.60;;;;;;4962047;29;20578;-84
2021/03/08 16:02:02;;;;;;;11.10;8.80;;;12.30;38.00;;;;;;4966959;29;20430;-84
2021/03/08 16:04:28;;;;;;;8.23;7.43;;;12.30;38.00;;;;;;4967009;29;20489;-86
2021/03/08 16:06:55;;;;;;;8.67;7.87;;;12.40;37.90;;;;;;4972019;29;20475;-86
2021/03/08 16:09:21;;;;;;;9.73;8.73;;;12.20;37.60;;;;;;4979967;28;20443;-83
2021/03/08 16:11:47;;;;;;;10.17;9.17;;;11.80;37.80;;;;;;4980025;28;20445;-82
2021/03/08 16:14:13;;;;;;;9.10;8.00;;;11.90;38.60;;;;;;4972621;28;20453;-87
2021/03/08 16:16:40;;;;;;;9.40;8.07;;;11.70;38.60;;;;;;4977845;28;20468;-85
2021/03/08 16:19:07;;;;;;;9.20;7.63;;;11.60;39.30;;;;;;4979517;28;20451;-82
2021/03/08 16:21:33;;;;;;;10.73;8.40;;;11.60;40.30;;;;;;4972140;28;20475;-85
2021/03/08 16:23:59;;;;;;;9.03;7.67;;;11.60;39.80;;;;;;4970566;29;20484;-85
2021/03/08 16:26:25;;;;;;;8.47;7.57;;;11.50;39.60;;;;;;4962724;29;20491;-85
2021/03/08 16:28:52;;;;;;;8.47;7.77;;;11.20;40.10;;;;;;4963255;29;20440;-85
2021/03/08 16:31:18;;;;;;;8.23;7.07;;;10.90;40.70;;;;;;4961882;29;20457;-85
2021/03/08 16:33:45;;;;;;;13.57;8.33;;;10.70;41.40;;;;;;4966807;29;20448;-86
2021/03/08 16:36:11;;;;;;;8.80;7.93;;;10.50;41.80;;;;;;4964917;28;20845;-84
2021/03/08 16:38:38;;;;;;;10.63;8.03;;;10.40;42.90;;;;;;4968521;29;20445;-85
2021/03/08 16:41:05;;;;;;;11.33;10.03;;;10.20;42.80;;;;;;4966198;29;20890;-85
2021/03/08 16:43:31;;;;;;;9.63;8.23;;;10.10;43.20;;;;;;4973487;28;20432;-88
2021/03/08 16:48:34;;;;;;;10.67;9.20;;;9.90;44.70;;;;;;1467671;26;20465;-86
2021/03/08 16:51:03;;;;;;;8.80;7.90;;;9.80;44.90;;;;;;5005220;28;20451;-87
2021/03/08 16:53:29;;;;;;;10.17;9.10;;;9.70;45.10;;;;;;5012122;28;20446;-87
2021/03/08 16:55:56;;;;;;;8.50;7.67;;;9.60;45.20;;;;;;5001028;28;20496;-87
2021/03/08 16:58:35;;;;;;;7.90;7.20;;;9.50;46.00;;;;;;5564509;23;20500;-90
2021/03/08 17:01:15;;;;;;;10.30;9.23;;;9.40;46.10;;;;;;4967564;29;20451;-90
2021/03/08 17:03:53;;;;;;;8.40;7.30;;;9.30;46.50;;;;;;4963279;29;20477;-91
2021/03/08 17:06:25;;;;;;;8.90;7.80;;;9.20;46.80;;;;;;4970628;28;20476;-90
2021/03/08 17:09:00;;;;;;;10.10;7.80;;;9.20;47.20;;;;;;4978079;28;20445;-91
2021/03/08 17:11:35;;;;;;;9.37;7.80;;;9.10;47.30;;;;;;4970638;28;20473;-91
2021/03/08 17:14:08;;;;;;;7.63;6.90;;;9.10;48.00;;;;;;4962716;29;20453;-91
2021/03/08 17:16:35;;;;;;;11.17;7.97;;;9.00;48.60;;;;;;4973267;28;20480;-90
2021/03/08 17:19:11;;;;;;;8.13;6.10;;;8.80;49.30;;;;;;4969439;29;21006;-90
2021/03/08 17:21:46;;;;;;;6.47;5.43;;;8.80;50.10;;;;;;4968346;29;20524;-91
2021/03/08 17:24:29;;;;;;;6.73;5.90;;;8.70;50.90;;;;;;4974311;29;20460;-91
2021/03/08 17:27:03;;;;;;;7.30;6.57;;;8.60;51.70;;;;;;4968085;28;20901;-91
2021/03/08 17:29:45;;;;;;;;;;;;;;;;;;;;;
2021/03/08 17:32:27;;;;;;;10.43;6.37;;;8.40;53.50;;;;;;4961584;29;20425;-91
2021/03/08 17:35:34;;;;;;;7.53;5.97;;;8.30;54.30;;;;;;4965399;29;20447;-92
2021/03/08 17:38:10;;;;;;;7.37;6.67;;;8.20;54.40;;;;;;4952942;28;20477;-90
2021/03/08 17:40:41;;;;;;;7.87;6.47;;;8.20;54.90;;;;;;4964411;29;20820;-91
2021/03/08 17:43:15;;;;;;;9.13;6.23;;;8.10;55.30;;;;;;4970854;29;20828;-91
2021/03/08 17:55:16;;;;;;;7.17;5.93;;;7.70;56.60;;;;;;4946766;28;20432;-92
2021/03/08 17:58:23;;;;;;;;;;;;;;;;;;;;;
2021/03/08 18:01:44;;;;;;;7.33;6.50;;;7.60;56.90;;;;;;4957275;29;20464;-92
2021/03/08 18:14:12;;;;;;;9.00;6.90;;;7.50;58.60;;;;;;4928099;29;20767;-92
2021/03/08 18:19:52;;;;;;;7.53;6.70;;;7.30;59.80;;;;;;5063463;23;20489;-92
2021/03/08 18:22:50;;;;;;;9.13;7.63;;;7.30;60.50;;;;;;4962783;28;20515;-92
2021/03/08 18:25:37;;;;;;;8.90;7.77;;;7.20;61.50;;;;;;4958768;28;20868;-91
2021/03/08 18:32:06;;;;;;;8.90;7.40;;;7.00;63.10;;;;;;4908271;29;20431;-93
2021/03/08 18:34:39;;;;;;;9.60;8.40;;;6.90;63.80;;;;;;4911640;29;20534;-92
2021/03/08 18:37:12;;;;;;;10.73;8.50;;;6.90;64.40;;;;;;4923958;28;20535;-92
2021/03/08 18:40:11;;;;;;;8.83;7.60;;;6.80;64.60;;;;;;4923870;28;20483;-91
2021/03/08 18:49:01;;;;;;;10.13;9.13;;;6.60;65.80;;;;;;5060482;23;20551;-91
2021/03/08 18:51:43;;;;;;;15.30;9.37;;;6.50;66.40;;;;;;4978311;28;20503;-91
2021/03/08 19:07:58;;;;;;;9.40;7.97;;;6.40;66.80;;;;;;4996947;23;20504;-88
2021/03/08 19:10:25;;;;;;;8.77;7.60;;;6.30;66.90;;;;;;4965814;29;20449;-86
2021/03/08 19:12:51;;;;;;;9.07;7.67;;;6.20;67.00;;;;;;4965362;28;20449;-87
2021/03/08 19:15:19;;;;;;;10.20;8.30;;;6.20;67.10;;;;;;4968314;29;20456;-86
2021/03/08 19:17:45;;;;;;;10.33;7.97;;;6.10;67.40;;;;;;4964570;29;20472;-86
2021/03/08 19:20:12;;;;;;;9.77;8.67;;;6.00;67.90;;;;;;4962733;28;20456;-88
2021/03/08 19:22:38;;;;;;;9.60;8.57;;;6.00;68.00;;;;;;4961105;29;20441;-87
2021/03/08 19:25:07;;;;;;;11.03;8.83;;;6.00;68.40;;;;;;4966747;29;20490;-86
2021/03/08 19:27:34;;;;;;;9.70;8.57;;;5.90;68.60;;;;;;4972989;28;20471;-85
2021/03/08 19:30:02;;;;;;;9.57;8.57;;;6.00;68.90;;;;;;4973219;29;20449;-86
2021/03/08 19:32:29;;;;;;;9.97;8.77;;;5.80;69.10;;;;;;4972025;28;20455;-89
2021/03/08 19:34:55;;;;;;;11.83;8.73;;;5.80;69.70;;;;;;4972483;28;20490;-87
2021/03/08 19:37:21;;;;;;;12.60;8.80;;;5.80;69.80;;;;;;4973304;28;20780;-88
2021/03/08 19:39:47;;;;;;;11.93;7.80;;;5.70;70.10;;;;;;4972665;28;20464;-86
2021/03/08 19:42:14;;;;;;;13.20;9.07;;;5.70;70.70;;;;;;4970790;29;20448;-86
2021/03/08 19:44:41;;;;;;;10.80;7.93;;;5.60;70.80;;;;;;4968380;29;20486;-88
2021/03/08 19:47:07;;;;;;;10.40;8.87;;;5.60;71.20;;;;;;4972417;28;20483;-88
2021/03/08 19:49:33;;;;;;;13.50;8.80;;;5.60;70.90;;;;;;4971508;29;20462;-89
2021/03/08 19:52:00;;;;;;;11.80;9.90;;;5.60;71.00;;;;;;4966103;28;20453;-87
2021/03/08 19:54:27;;;;;;;17.93;9.00;;;5.60;71.10;;;;;;4969016;29;20451;-87
2021/03/08 19:56:53;;;;;;;11.40;8.97;;;5.50;71.00;;;;;;4978765;28;20492;-88
2021/03/08 19:59:21;;;;;;;9.00;8.10;;;5.50;71.50;;;;;;4980848;28;20451;-90
2021/03/08 20:01:52;;;;;;;15.40;10.00;;;5.50;71.60;;;;;;4980680;28;20453;-89
2021/03/08 20:04:21;;;;;;;11.13;8.13;;;5.60;72.00;;;;;;4976360;29;20480;-89
2021/03/08 20:06:50;;;;;;;10.40;8.30;;;5.50;71.70;;;;;;4979688;28;20527;-90
2021/03/08 20:09:16;;;;;;;13.30;7.87;;;5.40;72.00;;;;;;4977075;28;20444;-89
2021/03/08 20:11:44;;;;;;;10.20;8.70;;;5.30;72.30;;;;;;4973513;28;20449;-87
2021/03/08 20:14:11;;;;;;;10.43;8.23;;;5.30;72.80;;;;;;4975527;28;20456;-91
2021/03/08 20:16:38;;;;;;;13.43;10.17;;;5.40;72.80;;;;;;4972388;28;20487;-88
2021/03/08 20:19:06;;;;;;;9.27;8.30;;;5.40;72.50;;;;;;4975279;29;20421;-86
2021/03/08 20:21:32;;;;;;;9.20;8.07;;;5.40;72.70;;;;;;4971024;28;20459;-88
2021/03/08 20:24:01;;;;;;;13.70;8.73;;;5.40;73.00;;;;;;4976761;28;20457;-89
2021/03/08 20:26:28;;;;;;;13.00;8.63;;;5.20;73.20;;;;;;4974523;28;20931;-90
2021/03/08 20:28:55;;;;;;;11.03;8.37;;;5.20;73.70;;;;;;4975190;28;20433;-89
2021/03/08 20:31:24;;;;;;;12.57;7.80;;;5.10;74.00;;;;;;4975458;29;20558;-87
2021/03/08 20:33:51;;;;;;;13.20;9.33;;;5.10;74.40;;;;;;4971530;29;20491;-89
2021/03/08 20:36:19;;;;;;;10.27;8.73;;;5.10;74.80;;;;;;4970871;28;20484;-87
2021/03/08 20:38:45;;;;;;;12.67;9.60;;;5.20;74.70;;;;;;4971400;29;20456;-86
2021/03/08 20:41:11;;;;;;;11.27;8.70;;;5.10;74.50;;;;;;4970289;29;20533;-88
2021/03/08 20:43:38;;;;;;;11.80;10.40;;;5.20;74.60;;;;;;4971871;29;20456;-88
2021/03/08 20:46:04;;;;;;;10.27;8.27;;;5.20;74.50;;;;;;4970325;28;20485;-89
2021/03/08 20:48:30;;;;;;;10.10;8.27;;;5.30;74.60;;;;;;4966281;29;20448;-88
2021/03/08 20:51:00;;;;;;;9.57;7.50;;;5.20;74.40;;;;;;4962454;29;20451;-87
2021/03/08 20:53:26;;;;;;;11.10;8.13;;;5.10;74.70;;;;;;4963619;28;20472;-88
2021/03/08 20:55:52;;;;;;;11.43;8.70;;;5.20;74.70;;;;;;4963034;28;21028;-88
2021/03/08 20:58:19;;;;;;;14.13;9.80;;;5.20;74.80;;;;;;4965191;29;20533;-87
2021/03/08 21:00:45;;;;;;;14.50;9.27;;;5.10;75.20;;;;;;4963635;28;20460;-86
2021/03/08 21:03:11;;;;;;;9.87;8.63;;;5.00;75.40;;;;;;4964564;29;20565;-88
2021/03/08 21:05:38;;;;;;;14.77;9.53;;;4.90;75.80;;;;;;4963376;28;20507;-86
2021/03/08 21:08:07;;;;;;;15.20;10.80;;;4.90;76.10;;;;;;4965831;29;20457;-86
2021/03/08 21:10:33;;;;;;;13.33;10.13;;;4.90;76.40;;;;;;4974269;29;20445;-86
2021/03/08 21:13:01;;;;;;;13.10;9.63;;;4.90;76.80;;;;;;4970226;29;20456;-87
2021/03/08 21:15:28;;;;;;;31.07;10.27;;;4.90;76.90;;;;;;4971970;29;20444;-86
2021/03/08 21:17:55;;;;;;;14.00;9.90;;;4.80;76.90;;;;;;4968951;28;20476;-86
2021/03/08 21:20:22;;;;;;;10.83;9.47;;;4.90;77.30;;;;;;4967320;29;20460;-86
2021/03/08 21:22:49;;;;;;;13.27;10.40;;;4.90;77.30;;;;;;4970298;29;20447;-85
2021/03/08 21:25:17;;;;;;;12.17;10.60;;;4.90;77.30;;;;;;4966801;29;20498;-86
2021/03/08 21:27:44;;;;;;;11.47;10.10;;;4.80;77.60;;;;;;4966797;29;20478;-87
2021/03/08 21:30:14;;;;;;;11.30;9.10;;;4.70;77.80;;;;;;4963838;29;20491;-85
2021/03/08 21:32:40;;;;;;;11.53;9.77;;;4.80;78.20;;;;;;4967133;29;20476;-86
2021/03/08 21:35:07;;;;;;;15.00;12.50;;;4.70;78.30;;;;;;4968092;29;20456;-85
2021/03/08 21:37:34;;;;;;;13.40;10.93;;;4.60;78.90;;;;;;4969744;28;20524;-86
2021/03/08 21:40:01;;;;;;;12.00;10.23;;;4.60;79.20;;;;;;4973688;28;20433;-86
2021/03/08 21:42:28;;;;;;;14.40;11.00;;;4.60;79.50;;;;;;4974253;28;20463;-88
2021/03/08 21:44:55;;;;;;;10.67;9.00;;;4.50;79.70;;;;;;4967664;29;20473;-87
2021/03/08 21:47:22;;;;;;;11.90;9.57;;;4.50;79.90;;;;;;4962590;28;20850;-86
2021/03/08 21:49:48;;;;;;;11.83;9.60;;;4.50;80.00;;;;;;4965892;29;20977;-86
2021/03/08 21:52:17;;;;;;;13.27;10.10;;;4.60;79.90;;;;;;4967462;29;20452;-87
2021/03/08 21:54:47;;;;;;;12.40;10.80;;;4.50;80.00;;;;;;4952772;29;20447;-89
2021/03/08 21:57:13;;;;;;;12.73;9.93;;;4.50;80.20;;;;;;4972499;29;20483;-85
2021/03/08 21:59:40;;;;;;;14.17;8.67;;;4.40;80.50;;;;;;4966883;29;20502;-87
2021/03/08 22:02:06;;;;;;;12.53;10.10;;;4.40;80.70;;;;;;4956835;29;20467;-88
2021/03/08 22:04:33;;;;;;;9.87;8.83;;;4.30;80.80;;;;;;4957067;29;20878;-88
2021/03/08 22:06:59;;;;;;;16.03;9.63;;;4.30;80.80;;;;;;4962527;28;20477;-87
2021/03/08 22:09:25;;;;;;;11.05;9.40;;;4.30;81.00;;;;;;4956153;29;20472;-88
2021/03/08 22:11:52;;;;;;;11.13;9.23;;;4.20;80.70;;;;;;4958473;28;20200;-88
2021/03/08 22:14:18;;;;;;;13.97;10.80;;;4.10;81.00;;;;;;4961416;29;20464;-87
2021/03/08 22:16:45;;;;;;;15.93;11.73;;;3.90;81.70;;;;;;4962011;29;20463;-88
2021/03/08 22:19:11;;;;;;;14.43;11.73;;;3.90;82.80;;;;;;4962780;29;20456;-87
2021/03/08 22:21:39;;;;;;;17.73;12.77;;;3.90;83.50;;;;;;4976431;28;20443;-85
2021/03/08 22:24:06;;;;;;;14.50;11.50;;;3.80;83.90;;;;;;4979898;28;20447;-84
2021/03/08 22:26:32;;;;;;;18.50;11.83;;;3.70;84.30;;;;;;4981251;28;20499;-85
2021/03/08 22:28:58;;;;;;;16.70;12.20;;;3.70;84.80;;;;;;4981587;28;20777;-85
2021/03/08 22:31:25;;;;;;;12.83;10.60;;;3.70;84.90;;;;;;4981553;28;20455;-85
2021/03/08 22:33:52;;;;;;;17.17;11.32;;;3.70;85.20;;;;;;4975639;28;20447;-87
2021/03/08 22:36:18;;;;;;;16.57;11.10;;;3.70;85.60;;;;;;4959177;28;20247;-87
2021/03/08 22:38:44;;;;;;;15.33;11.73;;;3.70;85.50;;;;;;4958010;29;20513;-87
2021/03/08 22:41:10;;;;;;;11.80;9.60;;;3.70;85.80;;;;;;4967291;29;20448;-85
2021/03/08 22:43:37;;;;;;;12.37;11.13;;;3.70;85.70;;;;;;4972462;29;20474;-86
2021/03/08 22:46:03;;;;;;;16.70;11.97;;;3.50;85.30;;;;;;4962880;28;20517;-85
2021/03/08 22:48:29;;;;;;;16.80;11.07;;;3.40;86.30;;;;;;4960496;29;20458;-88
2021/03/08 22:50:56;;;;;;;15.93;11.60;;;3.40;87.30;;;;;;4959631;29;20959;-87
2021/03/08 22:53:22;;;;;;;16.60;12.60;;;3.30;87.90;;;;;;4959828;29;20452;-87
2021/03/08 22:55:49;;;;;;;20.13;13.40;;;3.30;88.70;;;;;;4961166;29;20451;-85
2021/03/08 22:58:15;;;;;;;15.13;12.10;;;3.20;89.30;;;;;;4959873;29;20218;-86
2021/03/08 23:00:41;;;;;;;21.02;14.10;;;3.30;89.90;;;;;;4967950;28;20183;-85
2021/03/08 23:03:07;;;;;;;15.10;12.20;;;3.30;89.90;;;;;;4973587;29;20238;-87
2021/03/08 23:05:34;;;;;;;17.45;11.95;;;3.20;90.10;;;;;;4970775;29;20235;-87
2021/03/08 23:08:01;;;;;;;17.45;13.57;;;3.20;90.20;;;;;;4961934;28;20294;-88
2021/03/08 23:10:27;;;;;;;16.45;12.82;;;3.10;90.40;;;;;;4960318;29;20216;-87
2021/03/08 23:12:53;;;;;;;15.00;12.27;;;3.10;90.50;;;;;;4958402;29;20601;-86
2021/03/08 23:15:20;;;;;;;15.77;12.65;;;3.10;90.30;;;;;;4960030;29;20555;-85
2021/03/08 23:17:46;;;;;;;15.55;12.40;;;3.10;90.50;;;;;;4959645;29;20640;-87
2021/03/08 23:20:15;;;;;;;18.38;12.40;;;3.10;90.60;;;;;;4958432;29;20218;-86
2021/03/08 23:22:42;;;;;;;16.30;12.93;;;3.10;90.60;;;;;;4957716;28;20202;-86
2021/03/08 23:25:12;;;;;;;17.38;11.35;;;3.10;90.60;;;;;;4962479;29;20219;-85
2021/03/08 23:27:39;;;;;;;16.02;12.60;;;3.20;90.50;;;;;;4959093;28;20711;-87
2021/03/08 23:30:07;;;;;;;15.00;11.65;;;3.10;90.30;;;;;;4960088;29;20234;-86
2021/03/08 23:32:33;;;;;;;15.95;11.60;;;3.00;90.40;;;;;;4959580;29;20577;-87
2021/03/08 23:34:59;;;;;;;11.82;9.45;;;2.90;90.70;;;;;;4972607;29;20210;-88
2021/03/08 23:37:25;;;;;;;17.67;12.95;;;2.80;90.90;;;;;;4969732;28;20771;-88
2021/03/08 23:39:52;;;;;;;16.05;12.63;;;2.80;91.20;;;;;;4970706;29;20571;-88
2021/03/08 23:42:20;;;;;;;14.60;12.60;;;2.70;91.20;;;;;;4965953;28;20225;-86
2021/03/08 23:44:47;;;;;;;16.70;13.35;;;2.70;91.50;;;;;;4972456;29;20281;-88
2021/03/08 23:47:13;;;;;;;20.02;12.77;;;2.60;91.80;;;;;;4969190;28;20233;-87
2021/03/08 23:49:39;;;;;;;16.83;12.48;;;2.60;92.30;;;;;;4959118;29;20198;-87
2021/03/08 23:52:06;;;;;;;15.82;12.70;;;2.50;92.50;;;;;;4959611;29;20662;-87
2021/03/08 23:54:33;;;;;;;19.52;13.80;;;2.50;92.60;;;;;;4967835;29;20201;-88
2021/03/08 23:56:59;;;;;;;16.70;11.55;;;2.50;92.80;;;;;;4975840;29;20258;-87
2021/03/08 23:59:27;;;;;;;18.33;11.93;;;2.50;92.90;;;;;;4969407;29;20222;-89
